Time;durP1;ratioP1;P1;durP2;ratioP2;P2;SDS_P1;SDS_P2;PMS_P1;PMS_P2;Temp;Humidity;BMP_temperature;BMP_pressure;BME280_temperature;BME280_humidity;BME280_pressure;Samples;Min_cycle;Max_cycle;Signal;HPM_P1;HPM_P2
2021/04/17 00:00:25;;;;;;;0.70;0.70;;;;;;;1.85;74.61;97436.72;29990;231;6004;-57
2021/04/17 00:00:55;;;;;;;1.23;1.23;;;;;;;1.83;74.54;97444.16;29989;247;6000;-58
2021/04/17 00:01:27;;;;;;;0.70;0.70;;;;;;;1.82;74.23;97442.53;29991;241;6004;-58
2021/04/17 00:01:59;;;;;;;0.70;0.70;;;;;;;1.82;74.11;97442.53;29990;228;6000;-58
2021/04/17 00:02:30;;;;;;;0.70;0.70;;;;;;;1.83;74.10;97438.00;29990;238;6004;-57
2021/04/17 00:03:00;;;;;;;0.70;0.70;;;;;;;1.86;74.14;97448.25;29990;206;6000;-58
2021/04/17 00:03:31;;;;;;;0.70;0.70;;;;;;;1.87;74.10;97444.53;29990;199;6005;-58
2021/04/17 00:04:03;;;;;;;0.70;0.70;;;;;;;1.88;74.10;97441.63;29991;216;6000;-58
2021/04/17 00:04:38;;;;;;;0.70;0.70;;;;;;;1.90;73.81;97444.09;29990;242;6005;-58
2021/04/17 00:05:11;;;;;;;0.70;0.70;;;;;;;1.88;73.88;97438.97;29990;204;6000;-58
2021/04/17 00:05:41;;;;;;;0.70;0.70;;;;;;;1.88;73.89;97436.28;29990;251;6004;-58
2021/04/17 00:06:13;;;;;;;0.70;0.70;;;;;;;1.89;73.84;97442.44;29990;198;6000;-58
2021/04/17 00:06:44;;;;;;;0.70;0.70;;;;;;;1.89;74.07;97437.09;29990;230;6009;-58
2021/04/17 00:07:16;;;;;;;0.70;0.70;;;;;;;1.87;74.20;97445.34;29990;254;6000;-57
2021/04/17 00:07:47;;;;;;;0.70;0.70;;;;;;;1.87;73.90;97434.66;29991;240;6004;-59
2021/04/17 00:08:19;;;;;;;0.70;0.70;;;;;;;1.87;74.23;97439.19;29991;202;6000;-57
2021/04/17 00:08:50;;;;;;;0.70;0.70;;;;;;;1.88;73.99;97436.28;29991;202;6004;-57
2021/04/17 00:09:26;;;;;;;0.70;0.70;;;;;;;1.86;74.26;97433.00;29990;220;6000;-58
2021/04/17 00:09:58;;;;;;;0.70;0.70;;;;;;;1.85;74.28;97436.72;29990;207;6004;-57
2021/04/17 00:10:30;;;;;;;0.70;0.70;;;;;;;1.86;74.04;97437.53;29990;197;6000;-59
2021/04/17 00:11:03;;;;;;;0.70;0.70;;;;;;;1.84;74.50;97436.94;29990;276;6005;-58
2021/04/17 00:11:35;;;;;;;0.70;0.70;;;;;;;1.82;74.10;97431.00;29990;223;6000;-59
2021/04/17 00:12:15;;;;;;;0.70;0.70;;;;;;;1.82;74.29;97429.16;29990;204;6005;-58
2021/04/17 00:12:45;;;;;;;0.70;0.70;;;;;;;1.85;74.05;97430.56;29990;243;6000;-58
2021/04/17 00:13:16;;;;;;;0.70;0.70;;;;;;;1.87;74.10;97423.94;29990;205;6004;-58
2021/04/17 00:13:47;;;;;;;0.70;0.70;;;;;;;1.89;73.99;97427.22;29990;237;6000;-58
2021/04/17 00:14:25;;;;;;;0.70;0.70;;;;;;;1.92;73.74;97425.94;29991;233;6004;-58
2021/04/17 00:14:57;;;;;;;0.70;0.70;;;;;;;1.93;73.52;97428.41;29990;226;6000;-58
2021/04/17 00:15:31;;;;;;;0.70;0.70;;;;;;;1.94;73.49;97427.34;29990;200;6004;-58
2021/04/17 00:16:03;;;;;;;0.70;0.70;;;;;;;1.94;73.46;97423.88;29990;199;6000;-57
2021/04/17 00:16:33;;;;;;;0.70;0.70;;;;;;;1.94;73.50;97419.34;29989;213;6004;-58
2021/04/17 00:17:06;;;;;;;0.70;0.70;;;;;;;1.95;73.43;97426.31;29990;245;6000;-58
2021/04/17 00:17:36;;;;;;;0.70;0.70;;;;;;;1.95;73.60;97418.28;29990;265;6005;-57
2021/04/17 00:18:07;;;;;;;0.70;0.70;;;;;;;1.95;73.59;97415.63;29990;206;6000;-55
2021/04/17 00:18:38;;;;;;;0.70;0.70;;;;;;;1.96;73.71;97422.59;29990;220;6009;-58
2021/04/17 00:19:08;;;;;;;0.70;0.70;;;;;;;1.95;73.76;97423.63;29990;208;6000;-57
2021/04/17 00:19:40;;;;;;;0.70;0.70;;;;;;;1.97;73.75;97424.22;29990;260;6005;-57
2021/04/17 00:20:12;;;;;;;0.70;0.70;;;;;;;1.95;73.80;97420.97;29990;277;6000;-58
2021/04/17 00:20:43;;;;;;;0.80;0.80;;;;;;;1.95;73.69;97414.78;29989;199;6004;-57
2021/04/17 00:21:14;;;;;;;0.70;0.70;;;;;;;1.93;73.68;97423.03;29991;199;6000;-57
2021/04/17 00:21:44;;;;;;;0.70;0.70;;;;;;;1.90;73.79;97415.47;29990;208;6004;-58
2021/04/17 00:22:15;;;;;;;0.70;0.70;;;;;;;1.94;73.89;97416.66;29990;233;6000;-59
2021/04/17 00:22:46;;;;;;;0.70;0.70;;;;;;;1.94;73.74;97419.34;29990;215;6004;-59
2021/04/17 00:23:16;;;;;;;0.70;0.70;;;;;;;1.95;73.74;97423.63;29991;205;6000;-60
2021/04/17 00:23:47;;;;;;;0.70;0.70;;;;;;;1.95;73.74;97410.25;29991;236;6004;-57
2021/04/17 00:24:17;;;;;;;0.70;0.70;;;;;;;1.97;73.80;97418.06;29989;210;6000;-55
2021/04/17 00:24:48;;;;;;;0.70;0.70;;;;;;;1.95;73.90;97414.78;29990;215;6005;-57
2021/04/17 00:25:19;;;;;;;0.70;0.70;;;;;;;1.91;73.75;97417.09;29990;225;6000;-57
2021/04/17 00:25:49;;;;;;;0.70;0.70;;;;;;;1.92;73.82;97410.72;29990;214;6005;-58
2021/04/17 00:26:20;;;;;;;0.80;0.80;;;;;;;1.95;73.83;97420.16;29990;198;6000;-58
2021/04/17 00:26:51;;;;;;;0.70;0.70;;;;;;;1.96;73.58;97422.59;29990;208;6005;-58
2021/04/17 00:27:26;;;;;;;0.70;0.70;;;;;;;1.94;73.95;97411.31;29990;246;6000;-55
2021/04/17 00:27:56;;;;;;;0.70;0.70;;;;;;;1.93;73.93;97416.87;29990;218;6004;-58
2021/04/17 00:28:27;;;;;;;0.70;0.70;;;;;;;1.90;73.86;97415.47;29990;204;6000;-56
2021/04/17 00:28:58;;;;;;;0.70;0.70;;;;;;;1.91;74.04;97416.28;29990;234;6004;-58
2021/04/17 00:29:30;;;;;;;0.80;0.80;;;;;;;1.91;74.05;97414.44;29989;229;6000;-56
2021/04/17 00:30:01;;;;;;;0.70;0.70;;;;;;;1.89;74.01;97411.16;29990;204;6004;-55
2021/04/17 00:30:32;;;;;;;0.70;0.70;;;;;;;1.89;74.07;97410.34;29990;223;6000;-58
2021/04/17 00:31:03;;;;;;;0.70;0.70;;;;;;;1.89;74.18;97413.84;29990;202;6004;-57
2021/04/17 00:31:34;;;;;;;0.70;0.70;;;;;;;1.89;74.27;97405.81;29990;196;6000;-57
2021/04/17 00:32:07;;;;;;;0.70;0.70;;;;;;;1.88;74.30;97414.88;29990;212;6005;-58
2021/04/17 00:32:38;;;;;;;0.80;0.80;;;;;;;1.86;74.50;97410.78;29990;224;6000;-58
2021/04/17 00:33:08;;;;;;;0.70;0.70;;;;;;;1.85;74.54;97409.16;29990;224;6005;-58
2021/04/17 00:33:39;;;;;;;0.70;0.70;;;;;;;1.78;74.79;97400.38;29991;214;6000;-59
2021/04/17 00:34:09;;;;;;;0.70;0.70;;;;;;;1.80;74.55;97406.31;29990;198;6005;-58
2021/04/17 00:34:40;;;;;;;0.70;0.70;;;;;;;1.82;74.65;97410.41;29989;227;6000;-58
2021/04/17 00:35:13;;;;;;;0.70;0.70;;;;;;;1.81;74.77;97414.12;29990;202;6004;-58
2021/04/17 00:35:46;;;;;;;0.80;0.80;;;;;;;1.80;74.64;97406.31;29990;218;6000;-58
2021/04/17 00:36:17;;;;;;;0.70;0.70;;;;;;;1.80;74.77;97409.81;29990;206;6004;-58
2021/04/17 00:36:48;;;;;;;0.70;0.70;;;;;;;1.80;74.74;97409.81;29990;220;6000;-58
2021/04/17 00:37:18;;;;;;;0.70;0.70;;;;;;;1.80;74.68;97407.16;29990;262;6004;-58
2021/04/17 00:37:49;;;;;;;0.70;0.70;;;;;;;1.80;74.74;97409.81;29990;252;6000;-57
2021/04/17 00:38:20;;;;;;;0.70;0.70;;;;;;;1.79;74.82;97407.38;29991;232;6004;-58
2021/04/17 00:38:51;;;;;;;0.70;0.70;;;;;;;1.79;74.68;97410.03;29990;213;6000;-58
2021/04/17 00:39:22;;;;;;;0.70;0.70;;;;;;;1.81;74.62;97406.09;29991;223;6004;-57
2021/04/17 00:39:52;;;;;;;0.70;0.70;;;;;;;1.82;74.64;97404.25;29990;209;6000;-60
2021/04/17 00:40:23;;;;;;;0.70;0.70;;;;;;;1.86;74.58;97408.09;29990;272;6005;-58
2021/04/17 00:40:54;;;;;;;0.70;0.70;;;;;;;1.85;74.47;97404.63;29990;238;6000;-58
2021/04/17 00:41:24;;;;;;;0.70;0.70;;;;;;;1.85;74.57;97399.25;29990;234;6005;-58
2021/04/17 00:41:55;;;;;;;0.70;0.70;;;;;;;1.84;74.74;97408.34;29990;225;6000;-57
2021/04/17 00:42:26;;;;;;;0.70;0.70;;;;;;;1.85;74.35;97403.78;29991;218;6004;-58
2021/04/17 00:42:57;;;;;;;0.70;0.70;;;;;;;1.84;74.50;97408.34;29991;212;6000;-57
2021/04/17 00:43:29;;;;;;;0.70;0.70;;;;;;;1.84;74.71;97402.97;29990;199;6004;-58
2021/04/17 00:43:59;;;;;;;0.70;0.70;;;;;;;1.85;74.64;97406.47;29990;197;6000;-59
2021/04/17 00:44:30;;;;;;;0.70;0.70;;;;;;;1.84;74.59;97405.66;29990;197;6004;-58
2021/04/17 00:45:00;;;;;;;0.77;0.77;;;;;;;1.84;74.77;97405.66;29990;202;6000;-58
2021/04/17 00:45:32;;;;;;;0.70;0.70;;;;;;;1.82;74.61;97405.06;29990;218;6004;-57
2021/04/17 00:46:04;;;;;;;0.70;0.70;;;;;;;1.82;74.44;97404.25;29990;210;6000;-59
2021/04/17 00:46:35;;;;;;;0.70;0.70;;;;;;;1.82;74.64;97402.37;29991;202;6004;-58
2021/04/17 00:47:07;;;;;;;0.70;0.70;;;;;;;1.83;74.64;97405.88;29990;246;6000;-57
2021/04/17 00:47:37;;;;;;;0.70;0.70;;;;;;;1.78;75.32;97400.38;29990;221;6005;-54
2021/04/17 00:48:08;;;;;;;0.68;0.68;;;;;;;1.69;75.74;97391.88;29990;253;6000;-58
2021/04/17 00:48:42;;;;;;;0.70;0.70;;;;;;;1.63;75.69;97403.44;29991;214;6005;-55
2021/04/17 00:49:13;;;;;;;0.70;0.70;;;;;;;1.57;75.96;97397.13;29990;204;6000;-59
2021/04/17 00:49:44;;;;;;;0.70;0.70;;;;;;;1.56;75.77;97398.16;29990;218;6004;-58
2021/04/17 00:50:16;;;;;;;0.70;0.70;;;;;;;1.60;75.80;97395.88;29991;230;6000;-57
2021/04/17 00:50:47;;;;;;;0.70;0.70;;;;;;;1.62;75.37;97396.47;29990;238;6010;-58
2021/04/17 00:51:18;;;;;;;0.80;0.80;;;;;;;1.63;75.83;97396.25;29991;210;6000;-58
2021/04/17 00:51:50;;;;;;;1.92;1.90;;;;;;;1.61;76.34;97397.50;29990;206;6004;-58
2021/04/17 00:52:20;;;;;;;0.70;0.70;;;;;;;1.59;75.97;97402.25;29990;229;6000;-58
2021/04/17 00:52:53;;;;;;;0.80;0.80;;;;;;;1.58;75.92;97392.59;29990;215;6004;-58
2021/04/17 00:53:26;;;;;;;1.00;1.00;;;;;;;1.59;75.63;97399.59;29990;209;6000;-57
2021/04/17 00:53:57;;;;;;;0.70;0.70;;;;;;;1.61;75.95;97394.84;29990;209;6004;-58
2021/04/17 00:54:29;;;;;;;0.70;0.70;;;;;;;1.61;75.62;97395.66;29990;204;6000;-58
2021/04/17 00:55:00;;;;;;;0.73;0.73;;;;;;;1.65;75.76;97390.69;29990;219;6005;-58
2021/04/17 00:55:31;;;;;;;0.70;0.70;;;;;;;1.66;75.57;97394.97;29991;213;6000;-57
2021/04/17 00:56:09;;;;;;;0.70;0.70;;;;;;;1.66;75.44;97394.97;29989;232;6005;-58
2021/04/17 00:56:40;;;;;;;0.70;0.70;;;;;;;1.71;75.43;97400.47;29990;202;6000;-58
2021/04/17 00:57:10;;;;;;;0.70;0.70;;;;;;;1.73;75.34;97390.38;29990;202;6004;-58
2021/04/17 00:57:41;;;;;;;0.70;0.70;;;;;;;1.76;75.12;97389.09;29989;246;6000;-58
2021/04/17 00:58:12;;;;;;;0.70;0.70;;;;;;;1.78;75.11;97387.00;29990;230;6004;-58
2021/04/17 00:58:43;;;;;;;0.80;0.80;;;;;;;1.78;74.96;97392.34;29990;263;6000;-59
2021/04/17 00:59:13;;;;;;;0.70;0.70;;;;;;;1.76;74.79;97389.91;29990;243;6004;-58
2021/04/17 00:59:44;;;;;;;0.70;0.70;;;;;;;1.76;74.94;97387.22;29990;219;6000;-58
2021/04/17 01:00:16;;;;;;;0.90;0.90;;;;;;;1.77;74.79;97396.88;29990;218;6004;-57
2021/04/17 01:00:47;;;;;;;0.70;0.70;;;;;;;1.77;74.65;97394.22;29990;203;6000;-58
2021/04/17 01:01:20;;;;;;;0.70;0.70;;;;;;;1.76;74.87;97395.25;29990;222;6004;-59
2021/04/17 01:01:51;;;;;;;0.70;0.70;;;;;;;1.74;75.12;97383.94;29990;220;6000;-58
2021/04/17 01:02:31;;;;;;;0.70;0.70;;;;;;;1.71;74.88;97387.09;29990;202;6005;-58
2021/04/17 01:03:44;;;;;;;0.70;0.70;;;;;;;1.73;74.90;97393.06;29989;202;6008;-57
2021/04/17 01:04:38;;;;;;;0.70;0.70;;;;;;;1.71;74.77;97395.13;29991;212;6005;-58
2021/04/17 01:05:14;;;;;;;0.80;0.80;;;;;;;1.70;74.91;97390.81;29990;280;6000;-58
2021/04/17 01:05:47;;;;;;;0.70;0.70;;;;;;;1.70;75.05;97393.50;29991;266;6004;-57
2021/04/17 01:06:22;;;;;;;0.73;0.73;;;;;;;1.69;75.03;97394.53;29990;211;6000;-58
2021/04/17 01:07:06;;;;;;;0.80;0.80;;;;;;;1.66;75.11;97389.63;29990;243;6004;-58
2021/04/17 01:07:42;;;;;;;0.70;0.70;;;;;;;1.64;75.32;97391.72;29990;232;6000;-57
2021/04/17 01:08:47;;;;;;;0.70;0.70;;;;;;;1.61;75.74;97397.50;29989;239;6004;-58
2021/04/17 01:09:50;;;;;;;0.80;0.80;;;;;;;1.61;75.60;97394.84;29990;276;6000;-57
2021/04/17 01:10:40;;;;;;;0.75;0.75;;;;;;;1.58;75.59;97387.25;29990;204;6005;-58
2021/04/17 01:11:18;;;;;;;0.80;0.80;;;;;;;1.60;75.80;97394.00;29990;224;6000;-59
2021/04/17 01:12:09;;;;;;;0.77;0.77;;;;;;;1.58;75.75;97389.94;29990;225;6005;-58
2021/04/17 01:12:45;;;;;;;0.80;0.80;;;;;;;1.58;75.84;97392.59;29990;249;6010;-58
2021/04/17 01:13:16;;;;;;;0.70;0.70;;;;;;;1.58;75.95;97397.94;29990;197;6004;-58
2021/04/17 01:13:48;;;;;;;0.80;0.80;;;;;;;1.57;75.86;97397.13;29991;249;6000;-59
2021/04/17 01:14:21;;;;;;;0.77;0.77;;;;;;;1.57;75.89;97386.44;29990;197;6004;-57
2021/04/17 01:14:53;;;;;;;0.70;0.70;;;;;;;1.55;76.13;97393.03;29990;255;6000;-59
2021/04/17 01:15:24;;;;;;;0.70;0.70;;;;;;;1.55;75.84;97393.03;29989;283;6004;-58
2021/04/17 01:15:56;;;;;;;0.70;0.70;;;;;;;1.55;75.93;97393.87;29990;199;6000;-58
2021/04/17 01:16:27;;;;;;;0.70;0.70;;;;;;;1.54;75.74;97389.56;29991;246;6000;-55
2021/04/17 01:17:00;;;;;;;0.70;0.70;;;;;;;1.58;75.99;97389.94;29990;198;6000;-57
2021/04/17 01:17:32;;;;;;;0.70;0.70;;;;;;;1.58;75.92;97393.41;29991;218;6005;-58
2021/04/17 01:18:03;;;;;;;0.70;0.70;;;;;;;1.58;76.10;97387.25;29989;267;6000;-59
2021/04/17 01:18:35;;;;;;;0.70;0.70;;;;;;;1.56;75.90;97386.66;29990;206;6005;-58
2021/04/17 01:19:12;;;;;;;0.70;0.70;;;;;;;1.58;76.01;97384.56;29991;197;6000;-59
2021/04/17 01:20:09;;;;;;;0.70;0.70;;;;;;;1.58;75.94;97393.41;29990;219;6005;-59
2021/04/17 01:20:46;;;;;;;0.80;0.80;;;;;;;1.59;75.61;97387.03;29989;212;6004;-58
2021/04/17 01:21:17;;;;;;;0.70;0.70;;;;;;;1.59;75.95;97388.88;29989;203;6000;-59
2021/04/17 01:21:50;;;;;;;0.70;0.70;;;;;;;1.61;75.69;97389.47;29990;216;6004;-57
2021/04/17 01:22:25;;;;;;;0.80;0.80;;;;;;;1.60;75.75;97387.84;29990;214;6000;-59
2021/04/17 01:23:10;;;;;;;0.77;0.77;;;;;;;1.61;75.81;97384.13;29990;208;6004;-57
2021/04/17 01:23:49;;;;;;;0.73;0.73;;;;;;;1.60;76.14;97385.19;29990;210;6000;-57
2021/04/17 01:24:21;;;;;;;0.70;0.70;;;;;;;1.55;76.32;97385.03;29989;234;6005;-59
2021/04/17 01:25:03;;;;;;;0.70;0.70;;;;;;;1.53;77.02;97390.59;29990;254;6000;-59
2021/04/17 01:25:58;;;;;;;0.70;0.70;;;;;;;1.49;76.75;97389.41;29990;218;6005;-59
2021/04/17 01:26:32;;;;;;;0.70;0.70;;;;;;;1.49;76.37;97388.59;29990;307;6000;-55
2021/04/17 01:27:06;;;;;;;0.70;0.70;;;;;;;1.48;76.47;97381.59;29990;240;6004;-58
2021/04/17 01:27:40;;;;;;;0.70;0.70;;;;;;;1.48;76.50;97382.41;29990;222;6000;-58
2021/04/17 01:28:11;;;;;;;0.70;0.70;;;;;;;1.50;76.32;97385.69;29990;220;6004;-59
2021/04/17 01:28:50;;;;;;;0.70;0.70;;;;;;;1.51;76.80;97386.50;29989;330;6000;-58
2021/04/17 01:29:27;;;;;;;0.70;0.70;;;;;;;1.51;76.64;97386.50;29989;214;6004;-58
2021/04/17 01:29:58;;;;;;;0.70;0.70;;;;;;;1.52;76.67;97382.78;29990;214;6012;-57
2021/04/17 01:30:29;;;;;;;0.70;0.70;;;;;;;1.53;76.44;97379.91;29990;197;6004;-58
2021/04/17 01:31:01;;;;;;;0.80;0.80;;;;;;;1.56;76.30;97383.97;29990;197;6000;-59
2021/04/17 01:31:34;;;;;;;0.70;0.70;;;;;;;1.57;76.63;97385.63;29990;197;6004;-58
2021/04/17 01:32:10;;;;;;;0.70;0.70;;;;;;;1.58;76.54;97381.91;29990;234;6000;-59
2021/04/17 01:32:42;;;;;;;0.80;0.80;;;;;;;1.58;76.40;97381.91;29990;280;6005;-58
2021/04/17 01:33:13;;;;;;;0.70;0.70;;;;;;;1.58;76.30;97382.72;29990;233;6000;-58
2021/04/17 01:33:47;;;;;;;0.70;0.70;;;;;;;1.58;76.37;97387.25;29990;257;6005;-57
2021/04/17 01:34:19;;;;;;;0.80;0.80;;;;;;;1.59;76.31;97383.53;29989;213;6000;-60
2021/04/17 01:34:50;;;;;;;0.70;0.70;;;;;;;1.60;76.12;97379.81;29990;229;6004;-57
2021/04/17 01:35:22;;;;;;;0.70;0.70;;;;;;;1.61;76.19;97379.59;29990;259;6000;-58
2021/04/17 01:35:55;;;;;;;0.70;0.70;;;;;;;1.62;76.24;97373.22;29990;257;6004;-58
2021/04/17 01:36:28;;;;;;;0.70;0.70;;;;;;;1.63;76.18;97382.88;29990;253;6000;-58
2021/04/17 01:37:00;;;;;;;0.70;0.70;;;;;;;1.64;76.10;97381.00;29990;213;6004;-57
2021/04/17 01:38:06;;;;;;;0.70;0.70;;;;;;;1.67;75.89;97380.56;29989;227;6000;-58
2021/04/17 01:38:51;;;;;;;0.80;0.80;;;;;;;1.66;76.28;97378.94;29990;215;6004;-58
2021/04/17 01:39:25;;;;;;;0.70;0.70;;;;;;;1.61;76.20;97376.94;29990;227;6000;-59
2021/04/17 01:39:56;;;;;;;0.70;0.70;;;;;;;1.58;76.73;97381.91;29990;242;6005;-58
2021/04/17 01:40:30;;;;;;;0.70;0.70;;;;;;;1.56;76.34;97383.97;29990;223;6000;-59
2021/04/17 01:41:07;;;;;;;0.70;0.70;;;;;;;1.55;76.34;97380.50;29990;197;6005;-59
2021/04/17 01:41:46;;;;;;;0.70;0.70;;;;;;;1.57;76.33;97375.75;29990;210;6000;-59
2021/04/17 01:42:18;;;;;;;0.70;0.70;;;;;;;1.56;76.82;97382.13;29990;252;6004;-58
2021/04/17 01:42:50;;;;;;;0.70;0.70;;;;;;;1.55;77.23;97383.16;29990;218;6000;-57
2021/04/17 01:43:24;;;;;;;0.70;0.70;;;;;;;1.55;76.67;97375.12;29990;218;6004;-57
2021/04/17 01:43:58;;;;;;;0.70;0.70;;;;;;;1.56;76.79;97373.28;29991;210;6008;-58
2021/04/17 01:44:32;;;;;;;0.70;0.70;;;;;;;1.56;76.54;97370.59;29990;198;6004;-58
2021/04/17 01:45:04;;;;;;;0.70;0.70;;;;;;;1.55;77.04;97371.66;29990;229;6009;-58
2021/04/17 01:45:36;;;;;;;0.70;0.70;;;;;;;1.53;76.77;97371.06;29990;202;6004;-58
2021/04/17 01:46:21;;;;;;;0.70;0.70;;;;;;;1.50;77.01;97379.53;29990;222;6000;-58
2021/04/17 01:47:00;;;;;;;0.70;0.70;;;;;;;1.45;77.33;97360.66;29989;212;6005;-58
2021/04/17 01:47:37;;;;;;;0.70;0.70;;;;;;;1.45;77.34;97371.34;29990;202;6000;-58
2021/04/17 01:48:09;;;;;;;0.70;0.70;;;;;;;1.46;77.01;97367.62;29990;237;6011;-57
2021/04/17 01:48:42;;;;;;;0.70;0.70;;;;;;;1.46;77.20;97365.78;29990;259;6000;-58
2021/04/17 01:49:15;;;;;;;0.70;0.70;;;;;;;1.48;76.96;97370.91;29990;286;6004;-58
2021/04/17 01:49:50;;;;;;;0.70;0.70;;;;;;;1.45;77.06;97364.16;29989;231;6000;-58
2021/04/17 01:50:23;;;;;;;0.70;0.70;;;;;;;1.49;76.83;97361.84;29990;209;6004;-58
2021/04/17 01:50:55;;;;;;;0.70;0.70;;;;;;;1.50;76.90;97364.28;29990;259;6000;-58
2021/04/17 01:51:26;;;;;;;0.70;0.70;;;;;;;1.50;76.88;97358.94;29990;197;6004;-57
2021/04/17 01:51:59;;;;;;;0.70;0.70;;;;;;;1.51;77.00;97365.09;29990;218;6000;-58
2021/04/17 01:52:30;;;;;;;0.80;0.80;;;;;;;1.51;77.21;97365.94;29989;202;6004;-59
2021/04/17 01:53:03;;;;;;;0.80;0.80;;;;;;;1.48;77.34;97371.72;29991;287;6000;-59
2021/04/17 01:53:37;;;;;;;0.70;0.70;;;;;;;1.45;77.15;97366.00;29989;309;6010;-57
2021/04/17 01:54:17;;;;;;;0.80;0.80;;;;;;;1.42;77.07;97366.44;29990;249;6000;-58
2021/04/17 01:54:58;;;;;;;1.73;1.62;;;;;;;1.40;77.26;97369.34;29990;232;6005;-58
2021/04/17 01:55:32;;;;;;;0.70;0.70;;;;;;;1.40;77.09;97363.16;29991;204;6000;-58
2021/04/17 01:56:04;;;;;;;0.70;0.70;;;;;;;1.40;77.23;97363.16;29990;384;6005;-59
2021/04/17 01:56:36;;;;;;;0.70;0.70;;;;;;;1.41;76.96;97368.31;29991;226;6000;-58
2021/04/17 01:57:08;;;;;;;0.70;0.70;;;;;;;1.43;77.12;97368.06;29989;237;6004;-59
2021/04/17 01:57:40;;;;;;;0.70;0.70;;;;;;;1.44;77.10;97369.72;29990;365;6000;-58
2021/04/17 01:58:12;;;;;;;0.70;0.70;;;;;;;1.46;77.01;97364.97;29991;227;6004;-58
2021/04/17 01:58:44;;;;;;;0.70;0.70;;;;;;;1.46;77.02;97364.97;29990;202;6000;-54
2021/04/17 01:59:19;;;;;;;0.80;0.80;;;;;;;1.46;76.82;97367.62;29990;232;6004;-59
2021/04/17 01:59:51;;;;;;;0.80;0.80;;;;;;;1.43;77.01;97373.44;29990;199;6000;-58
2021/04/17 02:00:21;;;;;;;0.70;0.70;;;;;;;1.38;77.08;97370.63;29991;226;6004;-59
2021/04/17 02:00:57;;;;;;;0.80;0.80;;;;;;;1.34;77.45;97373.75;29990;219;6000;-59
2021/04/17 02:01:28;;;;;;;0.80;0.80;;;;;;;1.33;77.12;97372.09;29990;218;6004;-59
2021/04/17 02:01:59;;;;;;;0.70;0.70;;;;;;;1.33;77.03;97369.44;29989;223;6000;-58
2021/04/17 02:02:30;;;;;;;0.70;0.70;;;;;;;1.31;77.39;97376.88;29991;197;6005;-58
2021/04/17 02:03:01;;;;;;;0.80;0.80;;;;;;;1.31;77.39;97366.16;29990;240;6000;-59
2021/04/17 02:03:31;;;;;;;0.80;0.80;;;;;;;1.29;77.48;97365.56;29990;277;6005;-59
2021/04/17 02:04:03;;;;;;;0.70;0.70;;;;;;;1.24;77.66;97369.94;29990;229;6000;-58
2021/04/17 02:04:34;;;;;;;0.73;0.73;;;;;;;1.27;77.36;97370.31;29989;202;6004;-58
2021/04/17 02:05:07;;;;;;;0.70;0.70;;;;;;;1.29;77.53;97370.09;29990;205;6000;-58
2021/04/17 02:05:37;;;;;;;0.80;0.80;;;;;;;1.29;77.42;97368.25;29990;224;6004;-58
2021/04/17 02:06:08;;;;;;;0.70;0.70;;;;;;;1.30;77.39;97374.41;29990;276;6000;-60
2021/04/17 02:06:38;;;;;;;0.80;0.80;;;;;;;1.31;77.25;97366.16;29989;199;6004;-58
2021/04/17 02:07:09;;;;;;;0.80;0.80;;;;;;;1.30;77.39;97369.88;29991;215;6000;-60
2021/04/17 02:07:40;;;;;;;0.70;0.70;;;;;;;1.33;77.10;97361.41;29991;247;6004;-57
2021/04/17 02:08:10;;;;;;;0.70;0.70;;;;;;;1.34;77.30;97365.72;29990;222;6006;-60
2021/04/17 02:08:41;;;;;;;0.70;0.70;;;;;;;1.36;77.11;97367.34;29990;224;6004;-59
2021/04/17 02:09:12;;;;;;;0.70;0.70;;;;;;;1.34;77.13;97360.38;29989;206;6000;-57
2021/04/17 02:09:43;;;;;;;0.70;0.70;;;;;;;1.36;77.16;97357.47;29990;213;6005;-57
2021/04/17 02:10:14;;;;;;;0.70;0.70;;;;;;;1.37;77.17;97360.97;29991;290;6000;-58
2021/04/17 02:10:46;;;;;;;0.80;0.80;;;;;;;1.38;77.13;97366.09;29990;282;6005;-59
2021/04/17 02:11:16;;;;;;;0.70;0.70;;;;;;;1.38;77.46;97366.09;29990;198;6000;-58
2021/04/17 02:11:47;;;;;;;0.80;0.80;;;;;;;1.34;77.22;97360.38;29990;270;6004;-59
2021/04/17 02:12:18;;;;;;;0.80;0.80;;;;;;;1.39;77.29;97366.91;29989;263;6000;-60
2021/04/17 02:12:49;;;;;;;0.80;0.80;;;;;;;1.38;77.22;97358.06;29990;226;6004;-59
2021/04/17 02:13:20;;;;;;;0.70;0.70;;;;;;;1.41;77.20;97364.81;29990;216;6000;-58
2021/04/17 02:13:51;;;;;;;0.70;0.70;;;;;;;1.42;76.97;97369.13;29989;197;6004;-55
2021/04/17 02:14:23;;;;;;;0.70;0.70;;;;;;;1.41;77.14;97364.81;29989;251;6000;-59
2021/04/17 02:14:55;;;;;;;0.70;0.70;;;;;;;1.38;77.04;97357.25;29990;226;6004;-60
2021/04/17 02:15:29;;;;;;;0.80;0.80;;;;;;;1.41;76.83;97364.81;29990;217;6007;-58
2021/04/17 02:16:06;;;;;;;0.70;0.70;;;;;;;1.42;77.00;97355.75;29991;263;6005;-59
2021/04/17 02:17:01;;;;;;;0.77;0.77;;;;;;;1.42;76.83;97361.09;29990;262;6000;-58
2021/04/17 02:17:50;;;;;;;0.70;0.70;;;;;;;1.40;76.98;97368.53;29989;224;6005;-57
2021/04/17 02:18:30;;;;;;;0.80;0.80;;;;;;;1.42;76.75;97364.59;29990;218;6000;-58
2021/04/17 02:19:07;;;;;;;0.70;0.70;;;;;;;1.42;76.63;97361.91;29990;208;6004;-58
2021/04/17 02:19:50;;;;;;;0.80;0.80;;;;;;;1.43;76.76;97360.06;29990;209;6000;-58
2021/04/17 02:20:42;;;;;;;0.70;0.70;;;;;;;1.44;76.76;97356.34;29990;209;6004;-58
2021/04/17 02:21:18;;;;;;;0.80;0.80;;;;;;;1.40;76.75;97355.16;29990;228;6000;-57
2021/04/17 02:21:51;;;;;;;0.80;0.80;;;;;;;1.44;76.72;97361.69;29990;224;6004;-55
2021/04/17 02:22:24;;;;;;;0.70;0.70;;;;;;;1.44;76.71;97367.84;29990;218;6000;-57
2021/04/17 02:22:55;;;;;;;0.70;0.70;;;;;;;1.46;76.67;97356.94;29989;231;6004;-58
2021/04/17 02:23:28;;;;;;;0.70;0.70;;;;;;;1.46;76.85;97362.28;29991;197;6000;-58
2021/04/17 02:24:00;;;;;;;0.70;0.70;;;;;;;1.48;76.74;97362.88;29990;293;6005;-58
2021/04/17 02:24:32;;;;;;;0.80;0.80;;;;;;;1.49;76.73;97361.84;29990;197;6000;-59
2021/04/17 02:25:05;;;;;;;0.80;0.80;;;;;;;1.49;76.77;97364.50;29990;220;6005;-58
2021/04/17 02:25:36;;;;;;;0.70;0.70;;;;;;;1.49;76.48;97361.84;29989;269;6000;-58
2021/04/17 02:26:07;;;;;;;0.70;0.70;;;;;;;1.48;76.60;97355.69;29990;213;6004;-58
2021/04/17 02:26:38;;;;;;;0.70;0.70;;;;;;;1.46;76.42;97356.94;29990;202;6000;-60
2021/04/17 02:27:10;;;;;;;0.70;0.70;;;;;;;1.50;76.74;97360.81;29990;214;6004;-58
2021/04/17 02:27:42;;;;;;;0.70;0.70;;;;;;;1.49;76.99;97367.19;29991;251;6000;-58
2021/04/17 02:28:12;;;;;;;0.70;0.70;;;;;;;1.46;76.77;97359.59;29990;212;6004;-58
2021/04/17 02:28:43;;;;;;;0.73;0.73;;;;;;;1.46;76.88;97368.44;29990;303;6000;-58
2021/04/17 02:29:14;;;;;;;0.73;0.73;;;;;;;1.46;77.02;97356.94;29990;201;6004;-59
2021/04/17 02:29:49;;;;;;;0.70;0.70;;;;;;;1.45;76.99;97360.66;29989;212;6000;-59
2021/04/17 02:30:20;;;;;;;0.70;0.70;;;;;;;1.46;76.98;97362.28;29990;241;6004;-59
2021/04/17 02:30:51;;;;;;;0.70;0.70;;;;;;;1.45;76.95;97366.00;29990;254;6000;-58
2021/04/17 02:31:24;;;;;;;0.70;0.70;;;;;;;1.48;77.14;97365.56;29989;200;6005;-58
2021/04/17 02:31:55;;;;;;;0.80;0.80;;;;;;;1.48;77.02;97370.91;29990;252;6000;-58
2021/04/17 02:32:26;;;;;;;0.80;0.80;;;;;;;1.48;76.79;97360.22;29990;231;6005;-59
2021/04/17 02:33:00;;;;;;;0.70;0.70;;;;;;;1.48;77.09;97357.53;29990;211;6000;-59
2021/04/17 02:33:31;;;;;;;0.70;0.70;;;;;;;1.47;76.89;97358.56;29990;208;6005;-58
2021/04/17 02:34:03;;;;;;;0.70;0.70;;;;;;;1.49;77.16;97367.19;29990;212;6000;-57
2021/04/17 02:34:34;;;;;;;0.73;0.73;;;;;;;1.49;77.21;97356.50;29990;225;6013;-57
2021/04/17 02:35:06;;;;;;;0.70;0.70;;;;;;;1.48;77.23;97361.03;29990;238;6000;-58
2021/04/17 02:35:36;;;;;;;0.77;0.77;;;;;;;1.48;77.33;97354.84;29990;253;6004;-58
2021/04/17 02:36:07;;;;;;;0.80;0.80;;;;;;;1.49;77.18;97359.16;29990;233;6000;-58
2021/04/17 02:36:38;;;;;;;0.70;0.70;;;;;;;1.48;77.04;97361.03;29989;292;6004;-60
2021/04/17 02:37:10;;;;;;;0.70;0.70;;;;;;;1.49;77.08;97359.97;29991;231;6000;-59
2021/04/17 02:37:40;;;;;;;0.70;0.70;;;;;;;1.47;77.10;97364.75;29990;261;6004;-55
2021/04/17 02:38:11;;;;;;;0.70;0.70;;;;;;;1.45;77.10;97353.44;29990;209;6000;-58
2021/04/17 02:38:42;;;;;;;0.70;0.70;;;;;;;1.46;77.23;97354.25;29991;208;6000;-59
2021/04/17 02:39:13;;;;;;;0.70;0.70;;;;;;;1.46;77.17;97362.28;29990;198;6000;-58
2021/04/17 02:39:44;;;;;;;0.70;0.70;;;;;;;1.48;77.04;97360.22;29989;198;6005;-58
2021/04/17 02:40:15;;;;;;;0.70;0.70;;;;;;;1.48;76.98;97365.56;29990;218;6000;-58
2021/04/17 02:40:46;;;;;;;0.80;0.80;;;;;;;1.47;77.28;97363.91;29990;197;6005;-58
2021/04/17 02:41:17;;;;;;;0.70;0.70;;;;;;;1.45;77.30;97355.31;29990;217;6000;-58
2021/04/17 02:41:48;;;;;;;0.70;0.70;;;;;;;1.45;77.15;97355.31;29989;242;6004;-58
2021/04/17 02:42:18;;;;;;;0.80;0.80;;;;;;;1.45;76.98;97366.81;29990;223;6000;-58
2021/04/17 02:42:48;;;;;;;0.70;0.70;;;;;;;1.43;77.40;97357.38;29990;198;6004;-58
2021/04/17 02:43:22;;;;;;;0.80;0.80;;;;;;;1.41;77.54;97362.13;29991;244;6000;-58